createdAt,value
2019-03-23T00:01:24.165Z,22.43
2019-03-23T00:03:52.772Z,19.77
2019-03-23T00:06:30.473Z,21.30
2019-03-23T00:09:01.094Z,20.50
2019-03-23T00:11:33.848Z,19.63
2019-03-23T00:14:04.322Z,19.90
2019-03-23T00:16:35.100Z,18.90
2019-03-23T00:19:05.320Z,19.43
2019-03-23T00:21:38.624Z,19.07
2019-03-23T00:24:07.479Z,19.43
2019-03-23T00:26:40.580Z,19.93
2019-03-23T00:29:06.809Z,19.23
2019-03-23T00:31:35.736Z,19.57
2019-03-23T00:34:06.040Z,19.33
2019-03-23T00:36:41.350Z,20.80
2019-03-23T00:39:06.936Z,20.67
2019-03-23T00:41:36.317Z,20.37
2019-03-23T00:44:07.897Z,20.37
2019-03-23T00:46:38.262Z,19.93
2019-03-23T00:49:08.829Z,20.33
2019-03-23T00:51:37.868Z,20.20
2019-03-23T00:54:08.546Z,20.60
2019-03-23T00:56:39.890Z,20.47
2019-03-23T00:59:10.153Z,20.37
2019-03-23T01:01:38.884Z,19.10
2019-03-23T01:04:07.811Z,18.27
2019-03-23T01:06:37.977Z,19.00
2019-03-23T01:09:08.244Z,18.50
2019-03-23T01:11:38.400Z,20.00
2019-03-23T01:14:08.570Z,19.60
2019-03-23T01:16:37.356Z,18.13
2019-03-23T01:19:08.758Z,19.97
2019-03-23T01:21:37.717Z,19.50
2019-03-23T01:24:08.269Z,20.03
2019-03-23T01:26:41.395Z,19.67
2019-03-23T01:29:16.763Z,19.47
2019-03-23T01:31:45.486Z,19.27
2019-03-23T01:34:14.287Z,19.13
2019-03-23T01:36:44.606Z,19.57
2019-03-23T01:39:15.441Z,19.10
2019-03-23T01:41:44.237Z,19.07
2019-03-23T01:44:14.789Z,20.30
2019-03-23T01:46:45.134Z,22.37
2019-03-23T01:49:15.433Z,23.57
2019-03-23T01:51:45.432Z,25.93
2019-03-23T01:54:15.295Z,26.27
2019-03-23T01:56:44.109Z,26.80
2019-03-23T01:59:13.723Z,24.00
2019-03-23T02:01:43.904Z,25.47
2019-03-23T02:04:12.662Z,24.80
2019-03-23T02:06:41.422Z,23.97
2019-03-23T02:09:10.216Z,22.60
2019-03-23T02:11:40.638Z,26.23
2019-03-23T02:14:10.871Z,23.83
2019-03-23T02:16:45.482Z,23.07
2019-03-23T02:19:16.912Z,25.57
2019-03-23T02:21:47.023Z,26.83
2019-03-23T02:24:19.213Z,26.57
2019-03-23T02:26:49.686Z,29.63
2019-03-23T02:29:18.442Z,26.73
2019-03-23T02:31:47.917Z,26.23
2019-03-23T02:34:19.602Z,27.17
2019-03-23T02:36:48.997Z,27.40
2019-03-23T02:39:17.787Z,25.57
2019-03-23T02:41:47.103Z,26.90
2019-03-23T02:44:16.492Z,26.97
2019-03-23T02:46:46.416Z,27.60
2019-03-23T02:49:15.230Z,29.53
2019-03-23T02:51:45.956Z,27.87
2019-03-23T02:54:25.427Z,29.03
2019-03-23T02:56:54.713Z,27.27
2019-03-23T02:59:24.799Z,29.70
2019-03-23T03:01:55.004Z,26.77
2019-03-23T03:04:24.342Z,25.80
2019-03-23T03:06:53.214Z,27.00
2019-03-23T03:09:28.024Z,27.30
2019-03-23T03:11:59.816Z,26.40
2019-03-23T03:14:31.594Z,26.13
2019-03-23T03:17:00.336Z,26.57
2019-03-23T03:19:29.007Z,27.93
2019-03-23T03:21:59.892Z,28.40
2019-03-23T03:24:30.161Z,29.10
2019-03-23T03:27:01.822Z,30.60
2019-03-23T03:29:45.572Z,29.40
2019-03-23T03:32:14.373Z,28.70
2019-03-23T03:34:43.611Z,29.73
2019-03-23T03:37:12.860Z,27.20
2019-03-23T03:39:41.469Z,30.17
2019-03-23T03:42:11.676Z,28.00
2019-03-23T03:44:42.267Z,29.57
2019-03-23T03:47:11.091Z,29.77
2019-03-23T03:49:40.333Z,32.00
2019-03-23T03:52:09.887Z,29.77
2019-03-23T03:54:39.981Z,34.60
2019-03-23T03:57:08.843Z,31.57
2019-03-23T03:59:38.184Z,36.97
2019-03-23T04:02:06.804Z,36.47
2019-03-23T04:04:36.870Z,40.20
2019-03-23T04:07:07.715Z,34.87
2019-03-23T04:09:40.275Z,35.40
2019-03-23T04:12:08.465Z,36.93
2019-03-23T04:14:37.264Z,36.30
2019-03-23T04:17:06.033Z,32.80
2019-03-23T04:19:37.209Z,32.20
2019-03-23T04:22:08.437Z,34.47
2019-03-23T04:24:37.505Z,33.60
2019-03-23T04:27:06.496Z,35.33
2019-03-23T04:29:35.117Z,35.83
2019-03-23T04:32:05.115Z,35.60
2019-03-23T04:34:36.866Z,34.77
2019-03-23T04:37:08.373Z,35.23
2019-03-23T04:39:37.860Z,33.93
2019-03-23T04:42:06.688Z,36.47
2019-03-23T04:44:38.588Z,35.57
2019-03-23T04:47:08.311Z,34.33
2019-03-23T04:49:37.163Z,35.47
2019-03-23T04:52:06.135Z,36.40
2019-03-23T04:54:35.826Z,37.37
2019-03-23T04:57:07.324Z,37.27
2019-03-23T04:59:36.035Z,36.97
2019-03-23T05:02:05.660Z,36.03
2019-03-23T05:04:34.489Z,36.30
2019-03-23T05:07:04.757Z,39.93
2019-03-23T05:09:34.344Z,38.00
2019-03-23T05:12:04.314Z,38.00
2019-03-23T05:14:33.059Z,37.67
2019-03-23T05:17:02.108Z,39.63
2019-03-23T05:19:32.494Z,39.67
2019-03-23T05:22:01.180Z,42.13
2019-03-23T05:24:29.818Z,42.07
2019-03-23T05:26:58.550Z,40.87
2019-03-23T05:29:27.328Z,42.17
2019-03-23T05:31:56.425Z,40.27
2019-03-23T05:34:28.488Z,41.77
2019-03-23T05:36:57.277Z,42.40
2019-03-23T05:39:26.608Z,44.20
2019-03-23T05:41:55.487Z,40.33
2019-03-23T05:44:24.550Z,40.07
2019-03-23T05:46:54.360Z,38.00
2019-03-23T05:49:23.387Z,34.87
2019-03-23T05:51:55.226Z,37.27
2019-03-23T05:54:25.775Z,35.23
2019-03-23T05:56:55.966Z,34.40
2019-03-23T05:59:27.147Z,35.33
2019-03-23T06:01:58.172Z,36.07
2019-03-23T06:04:32.581Z,36.93
2019-03-23T06:07:01.294Z,33.03
2019-03-23T06:09:29.965Z,34.77
2019-03-23T06:11:58.572Z,34.70
2019-03-23T06:14:27.375Z,34.83
2019-03-23T06:16:56.166Z,33.97
2019-03-23T06:19:26.672Z,32.53
2019-03-23T06:21:56.788Z,35.00
2019-03-23T06:24:25.452Z,34.37
2019-03-23T06:26:56.003Z,34.20
2019-03-23T06:29:27.629Z,31.10
2019-03-23T06:31:58.756Z,31.17
2019-03-23T06:34:28.108Z,31.13
2019-03-23T06:36:56.818Z,29.80
2019-03-23T06:39:25.436Z,27.47
2019-03-23T06:41:54.158Z,27.63
2019-03-23T06:44:23.042Z,25.77
2019-03-23T06:46:51.772Z,25.20
2019-03-23T06:49:20.530Z,25.03
2019-03-23T06:51:49.127Z,25.77
2019-03-23T06:54:17.923Z,25.60
2019-03-23T06:56:46.810Z,24.50
2019-03-23T06:59:15.416Z,23.20
2019-03-23T07:01:45.251Z,23.00
2019-03-23T07:04:14.654Z,21.97
2019-03-23T07:06:43.438Z,23.27
2019-03-23T07:09:16.350Z,21.67
2019-03-23T07:11:44.496Z,21.17
2019-03-23T07:14:16.632Z,19.73
2019-03-23T07:16:45.396Z,21.27
2019-03-23T07:19:15.787Z,19.27
2019-03-23T07:21:44.508Z,17.53
2019-03-23T07:24:14.376Z,18.37
2019-03-23T07:26:45.769Z,19.43
2019-03-23T07:29:18.143Z,17.80
2019-03-23T07:31:51.483Z,18.00
2019-03-23T07:34:20.332Z,18.43
2019-03-23T07:36:50.664Z,18.83
2019-03-23T07:39:27.170Z,18.47
2019-03-23T07:41:50.574Z,17.57
2019-03-23T07:44:19.401Z,18.03
2019-03-23T07:46:48.155Z,17.73
2019-03-23T07:49:21.592Z,16.50
2019-03-23T07:51:50.095Z,16.60
2019-03-23T07:54:20.046Z,17.27
2019-03-23T07:56:48.782Z,12.53
2019-03-23T07:59:19.005Z,12.83
2019-03-23T08:01:50.725Z,11.87
2019-03-23T08:04:22.323Z,11.80
2019-03-23T08:06:53.946Z,11.67
2019-03-23T08:09:25.662Z,10.43
2019-03-23T08:11:55.023Z,8.90
2019-03-23T08:14:23.681Z,9.50
2019-03-23T08:16:57.678Z,8.93
2019-03-23T08:19:26.796Z,8.33
2019-03-23T08:21:56.117Z,7.47
2019-03-23T08:24:24.760Z,7.70
2019-03-23T08:26:58.583Z,7.20
2019-03-23T08:29:31.619Z,6.47
2019-03-23T08:32:00.356Z,6.73
2019-03-23T08:34:30.504Z,7.30
2019-03-23T08:37:02.078Z,7.90
2019-03-23T08:39:33.859Z,7.50
2019-03-23T08:42:03.235Z,8.10
2019-03-23T08:44:33.919Z,6.43
2019-03-23T08:47:02.741Z,8.57
2019-03-23T08:49:31.664Z,6.00
2019-03-23T08:52:00.413Z,4.90
2019-03-23T08:54:30.529Z,5.23
2019-03-23T08:57:03.839Z,7.23
2019-03-23T08:59:32.720Z,6.33
2019-03-23T09:02:03.936Z,7.97
2019-03-23T09:04:32.765Z,5.73
2019-03-23T09:07:01.489Z,5.57
2019-03-23T09:09:34.447Z,5.27
2019-03-23T09:12:05.863Z,5.43
2019-03-23T09:14:34.687Z,4.37
2019-03-23T09:17:04.668Z,5.60
2019-03-23T09:19:37.053Z,4.40
2019-03-23T09:22:05.940Z,4.37
2019-03-23T09:24:37.536Z,4.53
2019-03-23T09:27:06.526Z,5.00
2019-03-23T09:29:35.083Z,4.93
2019-03-23T09:32:05.304Z,4.23
2019-03-23T09:34:34.478Z,4.83
2019-03-23T09:37:03.192Z,5.30
2019-03-23T09:39:32.991Z,5.20
2019-03-23T09:42:01.795Z,4.83
2019-03-23T09:44:30.621Z,5.10
2019-03-23T09:47:01.146Z,4.80
2019-03-23T09:49:29.753Z,5.37
2019-03-23T09:52:00.812Z,5.87
2019-03-23T09:54:29.421Z,5.13
2019-03-23T09:56:59.588Z,6.33
2019-03-23T09:59:28.358Z,9.17
2019-03-23T10:01:57.044Z,6.07
2019-03-23T10:04:27.622Z,6.27
2019-03-23T10:06:56.145Z,5.07
2019-03-23T10:09:26.267Z,5.13
2019-03-23T10:11:55.028Z,5.30
2019-03-23T10:14:23.881Z,5.00
2019-03-23T10:16:55.741Z,4.53
2019-03-23T10:19:25.435Z,4.50
2019-03-23T10:21:54.192Z,3.87
2019-03-23T10:24:22.750Z,3.43
2019-03-23T10:26:52.297Z,15.27
2019-03-23T10:29:22.797Z,5.40
2019-03-23T10:31:52.083Z,4.00
2019-03-23T10:34:20.809Z,4.07
2019-03-23T10:36:49.586Z,3.97
2019-03-23T10:39:19.420Z,4.10
2019-03-23T10:41:48.868Z,4.20
2019-03-23T10:44:19.785Z,3.60
2019-03-23T10:46:48.638Z,4.60
2019-03-23T10:49:18.427Z,4.10
2019-03-23T10:51:47.329Z,4.30
2019-03-23T10:54:17.465Z,5.10
2019-03-23T10:56:46.132Z,4.10
2019-03-23T10:59:14.735Z,4.30
2019-03-23T11:01:47.067Z,5.10
2019-03-23T11:04:17.091Z,4.20
2019-03-23T11:06:46.998Z,5.93
2019-03-23T11:09:15.733Z,4.73
2019-03-23T11:11:46.091Z,4.47
2019-03-23T11:14:17.562Z,5.30
2019-03-23T11:16:47.338Z,5.73
2019-03-23T11:19:17.474Z,4.80
2019-03-23T11:21:50.329Z,4.73
2019-03-23T11:24:20.127Z,4.43
2019-03-23T11:26:50.048Z,4.50
2019-03-23T11:29:18.761Z,4.70
2019-03-23T11:31:47.567Z,4.40
2019-03-23T11:34:18.282Z,4.53
2019-03-23T11:36:47.150Z,3.77
2019-03-23T11:39:16.795Z,5.77
2019-03-23T11:41:45.825Z,4.77
2019-03-23T11:44:15.903Z,4.57
2019-03-23T11:46:48.110Z,4.80
2019-03-23T11:49:21.917Z,4.67
2019-03-23T11:51:51.753Z,4.37
2019-03-23T11:54:20.928Z,4.70
2019-03-23T11:56:51.772Z,5.30
2019-03-23T11:59:22.148Z,5.37
2019-03-23T12:02:05.131Z,4.50
2019-03-23T12:04:24.954Z,5.30
2019-03-23T12:06:54.765Z,4.77
2019-03-23T12:09:23.512Z,5.23
2019-03-23T12:11:55.384Z,4.53
2019-03-23T12:14:25.417Z,4.40
2019-03-23T12:16:54.245Z,5.40
2019-03-23T12:19:22.993Z,5.50
2019-03-23T12:21:52.732Z,4.83
2019-03-23T12:24:21.459Z,5.70
2019-03-23T12:26:51.534Z,6.10
2019-03-23T12:29:21.683Z,5.80
2019-03-23T12:31:51.119Z,5.70
2019-03-23T12:34:19.770Z,5.67
2019-03-23T12:36:48.677Z,6.07
2019-03-23T12:39:17.276Z,6.17
2019-03-23T12:41:46.526Z,6.10
2019-03-23T12:44:15.375Z,6.53
2019-03-23T12:46:48.229Z,6.47
2019-03-23T12:49:14.279Z,6.47
2019-03-23T12:51:44.097Z,5.47
2019-03-23T12:54:13.348Z,6.27
2019-03-23T12:56:42.540Z,6.00
2019-03-23T12:59:11.272Z,6.77
2019-03-23T13:01:41.470Z,6.50
2019-03-23T13:04:10.252Z,6.70
2019-03-23T13:06:42.299Z,6.33
2019-03-23T13:09:15.313Z,6.47
2019-03-23T13:11:44.096Z,6.20
2019-03-23T13:14:12.848Z,5.67
2019-03-23T13:16:41.654Z,7.00
2019-03-23T13:19:10.424Z,7.47
2019-03-23T13:21:39.302Z,6.33
2019-03-23T13:24:08.255Z,6.63
2019-03-23T13:26:36.955Z,6.60
2019-03-23T13:29:08.471Z,6.50
2019-03-23T13:31:37.278Z,7.23
2019-03-23T13:34:07.329Z,6.70
2019-03-23T13:36:39.690Z,6.57
2019-03-23T13:42:06.285Z,5.83
2019-03-23T13:44:36.323Z,7.20
2019-03-23T13:47:06.719Z,6.70
2019-03-23T13:49:35.419Z,6.67
2019-03-23T13:52:04.155Z,6.90
2019-03-23T13:54:33.496Z,6.93
2019-03-23T13:57:02.996Z,6.50
2019-03-23T13:59:32.208Z,6.80
2019-03-23T14:02:02.913Z,7.30
2019-03-23T14:04:31.660Z,7.57
2019-03-23T14:07:00.515Z,7.00
2019-03-23T14:09:30.767Z,7.00
2019-03-23T14:11:59.470Z,7.07
2019-03-23T14:14:29.861Z,6.97
2019-03-23T14:16:58.484Z,6.30
2019-03-23T14:19:28.834Z,6.57
2019-03-23T14:21:58.779Z,6.37
2019-03-23T14:24:28.627Z,7.17
2019-03-23T14:26:57.434Z,6.93
2019-03-23T14:29:26.204Z,7.20
2019-03-23T14:31:57.689Z,6.83
2019-03-23T14:34:26.372Z,7.20
2019-03-23T14:36:56.329Z,6.83
2019-03-23T14:39:25.714Z,6.57
2019-03-23T14:42:04.482Z,6.93
2019-03-23T14:44:26.109Z,6.90
2019-03-23T14:46:54.888Z,7.00
2019-03-23T14:49:33.057Z,7.00
2019-03-23T14:52:01.810Z,7.10
2019-03-23T14:54:30.497Z,7.20
2019-03-23T14:56:59.252Z,6.30
2019-03-23T14:59:27.901Z,6.40
2019-03-23T15:01:56.588Z,6.83
2019-03-23T15:04:25.371Z,6.90
2019-03-23T15:06:54.141Z,6.90
2019-03-23T15:09:24.726Z,7.23
2019-03-23T15:11:54.289Z,6.63
2019-03-23T15:14:25.527Z,6.30
2019-03-23T15:17:05.313Z,6.43
2019-03-23T15:19:41.091Z,6.87
2019-03-23T15:22:16.182Z,6.87
2019-03-23T15:24:45.139Z,5.87
2019-03-23T15:27:19.764Z,6.80
2019-03-23T15:29:48.439Z,7.40
2019-03-23T15:32:17.840Z,6.77
2019-03-23T15:34:48.983Z,7.20
2019-03-23T15:37:19.238Z,6.57
2019-03-23T15:39:49.989Z,5.97
2019-03-23T15:42:24.705Z,5.90
2019-03-23T15:44:51.629Z,6.67
2019-03-23T15:47:20.199Z,5.97
2019-03-23T15:49:54.008Z,6.33
2019-03-23T15:52:25.613Z,6.60
2019-03-23T15:54:55.750Z,6.67
2019-03-23T15:57:27.669Z,6.73
2019-03-23T16:00:00.289Z,6.43
2019-03-23T16:02:32.738Z,6.40
2019-03-23T16:05:02.148Z,6.43
2019-03-23T16:07:32.494Z,5.80
2019-03-23T16:10:01.756Z,5.60
2019-03-23T16:12:34.815Z,6.03
2019-03-23T16:15:02.750Z,5.53
2019-03-23T16:17:32.914Z,5.40
2019-03-23T16:20:01.659Z,5.33
2019-03-23T16:22:34.541Z,5.57
2019-03-23T16:25:05.694Z,5.50
2019-03-23T16:27:34.371Z,5.47
2019-03-23T16:30:11.263Z,5.03
2019-03-23T16:32:40.541Z,5.37
2019-03-23T16:35:09.794Z,5.40
2019-03-23T16:37:38.583Z,6.57
2019-03-23T16:40:09.178Z,5.70
2019-03-23T16:42:45.341Z,5.90
2019-03-23T16:45:09.997Z,6.20
2019-03-23T16:47:42.369Z,6.13
2019-03-23T16:50:14.147Z,6.03
2019-03-23T16:52:42.854Z,6.37
2019-03-23T16:55:12.499Z,6.07
2019-03-23T16:57:43.080Z,6.53
2019-03-23T17:00:14.743Z,6.13
2019-03-23T17:02:45.445Z,6.87
2019-03-23T17:05:14.626Z,7.00
2019-03-23T17:07:43.365Z,7.27
2019-03-23T17:10:12.134Z,7.60
2019-03-23T17:12:44.057Z,6.53
2019-03-23T17:15:13.528Z,7.70
2019-03-23T17:17:43.591Z,8.40
2019-03-23T17:20:14.997Z,8.27
2019-03-23T17:22:43.630Z,7.33
2019-03-23T17:25:12.331Z,8.07
2019-03-23T17:27:42.436Z,8.00
2019-03-23T17:30:11.407Z,8.70
2019-03-23T17:32:40.459Z,8.83
2019-03-23T17:35:09.503Z,9.20
2019-03-23T17:37:38.877Z,8.87
2019-03-23T17:40:08.773Z,10.57
2019-03-23T17:42:37.459Z,11.40
2019-03-23T17:45:18.951Z,13.63
2019-03-23T17:47:47.745Z,13.03
2019-03-23T17:50:17.772Z,11.90
2019-03-23T17:52:47.586Z,12.47
2019-03-23T17:55:17.808Z,12.10
2019-03-23T17:57:47.229Z,12.27
2019-03-23T18:00:18.773Z,12.40
2019-03-23T18:02:47.513Z,12.53
2019-03-23T18:05:16.800Z,12.63
2019-03-23T18:07:46.766Z,13.10
2019-03-23T18:10:16.881Z,12.57
2019-03-23T18:12:48.183Z,12.27
2019-03-23T18:15:19.994Z,12.20
2019-03-23T18:17:51.315Z,12.90
2019-03-23T18:20:20.068Z,13.10
2019-03-23T18:22:52.698Z,14.03
2019-03-23T18:25:21.941Z,14.00
2019-03-23T18:27:55.757Z,14.43
2019-03-23T18:30:39.637Z,14.47
2019-03-23T18:33:11.766Z,14.80
2019-03-23T18:35:43.783Z,15.87
2019-03-23T18:38:14.963Z,14.27
2019-03-23T18:40:48.068Z,13.13
2019-03-23T18:43:27.333Z,14.80
2019-03-23T18:45:51.883Z,15.00
2019-03-23T18:48:20.636Z,14.33
2019-03-23T18:50:49.844Z,16.83
2019-03-23T18:53:20.013Z,16.40
2019-03-23T18:55:52.623Z,17.77
2019-03-23T18:58:25.124Z,18.23
2019-03-23T19:00:54.991Z,20.23
2019-03-23T19:03:24.497Z,19.00
2019-03-23T19:05:53.496Z,18.73
2019-03-23T19:08:25.486Z,19.73
2019-03-23T19:10:54.262Z,19.53
2019-03-23T19:13:26.184Z,17.10
2019-03-23T19:15:55.057Z,19.23
2019-03-23T19:18:23.751Z,18.57
2019-03-23T19:20:52.435Z,18.53
2019-03-23T19:23:21.352Z,20.23
2019-03-23T19:25:50.069Z,18.80
2019-03-23T19:28:18.872Z,18.23
2019-03-23T19:30:49.231Z,20.43
2019-03-23T19:33:22.708Z,20.80
2019-03-23T19:35:53.879Z,20.13
2019-03-23T19:38:26.047Z,21.53
2019-03-23T19:40:56.851Z,22.43
2019-03-23T19:43:27.133Z,21.67
2019-03-23T19:45:58.401Z,23.03
2019-03-23T19:48:30.520Z,21.77
2019-03-23T19:51:03.748Z,22.80
2019-03-23T19:53:38.732Z,21.77
2019-03-23T19:56:08.311Z,21.17
2019-03-23T19:58:38.358Z,21.30
2019-03-23T20:01:27.302Z,21.60
2019-03-23T20:03:59.004Z,21.60
2019-03-23T20:06:31.309Z,24.30
2019-03-23T20:09:02.079Z,24.23
2019-03-23T20:11:32.096Z,24.03
2019-03-23T20:14:00.900Z,23.90
2019-03-23T20:16:29.651Z,22.50
2019-03-23T20:18:59.912Z,23.53
2019-03-23T20:21:29.153Z,23.17
2019-03-23T20:23:58.813Z,23.87
2019-03-23T20:26:28.141Z,24.00
2019-03-23T20:28:57.350Z,25.47
2019-03-23T20:31:27.688Z,24.57
2019-03-23T20:33:56.712Z,24.17
2019-03-23T20:36:25.367Z,24.90
2019-03-23T20:38:55.586Z,25.03
2019-03-23T20:41:24.353Z,23.60
2019-03-23T20:43:54.521Z,24.00
2019-03-23T20:46:26.514Z,24.40
2019-03-23T20:48:59.816Z,25.07
2019-03-23T20:51:29.796Z,24.57
2019-03-23T20:54:10.107Z,25.83
2019-03-23T20:56:36.017Z,24.43
2019-03-23T20:59:05.646Z,25.13
2019-03-23T21:01:36.214Z,23.87
2019-03-23T21:04:04.915Z,25.80
2019-03-23T21:06:33.764Z,26.13
2019-03-23T21:09:02.471Z,25.17
2019-03-23T21:11:32.782Z,24.23
2019-03-23T21:14:01.472Z,25.43
2019-03-23T21:16:30.241Z,24.10
2019-03-23T21:19:00.923Z,25.33
2019-03-23T21:21:33.544Z,24.97
2019-03-23T21:24:09.486Z,24.03
2019-03-23T21:26:38.313Z,23.07
2019-03-23T21:29:07.961Z,24.73
2019-03-23T21:31:39.537Z,23.53
2019-03-23T21:34:08.851Z,25.30
2019-03-23T21:36:37.840Z,25.77
2019-03-23T21:39:07.249Z,25.60
2019-03-23T21:41:38.809Z,26.40
2019-03-23T21:44:09.454Z,26.27
2019-03-23T21:46:40.460Z,26.27
2019-03-23T21:49:09.143Z,29.50
2019-03-23T21:51:41.387Z,27.23
2019-03-23T21:54:13.889Z,28.23
2019-03-23T21:56:42.735Z,30.40
2019-03-23T21:59:13.388Z,30.30
2019-03-23T22:01:44.711Z,28.57
2019-03-23T22:04:17.951Z,27.90
2019-03-23T22:06:50.348Z,29.03
2019-03-23T22:09:22.289Z,27.17
2019-03-23T22:11:51.085Z,30.80
2019-03-23T22:14:21.218Z,30.17
2019-03-23T22:16:52.128Z,30.80
2019-03-23T22:19:30.002Z,31.03
2019-03-23T22:22:04.244Z,31.00
2019-03-23T22:24:40.360Z,36.37
2019-03-23T22:27:09.047Z,40.67
2019-03-23T22:29:45.498Z,44.07
2019-03-23T22:32:15.908Z,43.70
2019-03-23T22:34:45.915Z,51.20
2019-03-23T22:37:16.575Z,47.67
2019-03-23T22:39:45.408Z,47.80
2019-03-23T22:42:15.476Z,50.03
2019-03-23T22:44:52.192Z,45.87
2019-03-23T22:47:19.199Z,45.90
2019-03-23T22:49:50.757Z,43.00
2019-03-23T22:52:22.734Z,40.70
2019-03-23T22:54:53.042Z,39.90
2019-03-23T22:57:21.954Z,31.17
2019-03-23T22:59:52.250Z,34.07
2019-03-23T23:02:22.371Z,34.20
2019-03-23T23:04:52.535Z,30.83
2019-03-23T23:07:21.275Z,31.53
2019-03-23T23:09:50.049Z,28.37
2019-03-23T23:12:19.064Z,28.97
2019-03-23T23:15:03.807Z,27.77
2019-03-23T23:17:22.152Z,25.93
2019-03-23T23:19:50.831Z,26.13
2019-03-23T23:22:20.247Z,26.03
2019-03-23T23:24:49.925Z,23.50
2019-03-23T23:27:31.781Z,23.67
2019-03-23T23:30:02.362Z,28.70
2019-03-23T23:32:32.952Z,32.43
2019-03-23T23:35:01.993Z,30.87
2019-03-23T23:37:34.847Z,33.47
2019-03-23T23:40:04.703Z,31.17
2019-03-23T23:42:34.252Z,24.20
2019-03-23T23:45:15.237Z,18.90
2019-03-23T23:47:39.455Z,18.47
2019-03-23T23:50:11.959Z,16.60
2019-03-23T23:52:43.613Z,18.10
2019-03-23T23:55:12.588Z,13.13
2019-03-23T23:57:45.670Z,16.57
